createdAt,value
2023-01-11T00:00:18.004Z,0.70
2023-01-11T00:01:18.888Z,0.60
2023-01-11T00:02:19.841Z,0.60
2023-01-11T00:03:20.691Z,0.80
2023-01-11T00:04:21.707Z,0.80
2023-01-11T00:05:22.074Z,0.60
2023-01-11T00:06:23.011Z,0.90
2023-01-11T00:07:23.866Z,1.00
2023-01-11T00:08:24.732Z,1.00
2023-01-11T00:09:25.609Z,0.90
2023-01-11T00:10:26.527Z,0.80
2023-01-11T00:11:27.389Z,0.90
2023-01-11T00:12:28.273Z,0.90
2023-01-11T00:13:29.156Z,0.70
2023-01-11T00:14:30.037Z,0.70
2023-01-11T00:15:30.936Z,0.70
2023-01-11T00:16:31.808Z,0.70
2023-01-11T00:17:32.721Z,0.50
2023-01-11T00:18:33.579Z,0.80
2023-01-11T00:19:34.458Z,0.70
2023-01-11T00:20:35.348Z,0.80
2023-01-11T00:21:36.233Z,0.70
2023-01-11T00:22:37.146Z,0.50
2023-01-11T00:23:38.036Z,0.90
2023-01-11T00:24:38.889Z,0.90
2023-01-11T00:25:39.783Z,0.70
2023-01-11T00:26:40.660Z,0.60
2023-01-11T00:27:41.544Z,0.90
2023-01-11T00:28:42.433Z,0.80
2023-01-11T00:29:43.326Z,0.80
2023-01-11T00:30:44.215Z,0.70
2023-01-11T00:31:45.089Z,0.80
2023-01-11T00:32:45.991Z,0.70
2023-01-11T00:33:46.847Z,0.70
2023-01-11T00:34:47.734Z,0.70
2023-01-11T00:35:48.648Z,0.70
2023-01-11T00:36:49.518Z,0.70
2023-01-11T00:37:50.452Z,0.70
2023-01-11T00:38:51.371Z,0.70
2023-01-11T00:39:52.246Z,0.70
2023-01-11T00:40:53.143Z,0.60
2023-01-11T00:41:54.024Z,0.60
2023-01-11T00:42:54.920Z,0.60
2023-01-11T00:43:55.788Z,0.60
2023-01-11T00:44:56.674Z,0.60
2023-01-11T00:45:57.665Z,0.60
2023-01-11T00:46:58.501Z,0.60
2023-01-11T00:47:59.386Z,0.50
2023-01-11T00:49:00.300Z,0.50
2023-01-11T00:50:01.201Z,0.70
2023-01-11T00:51:02.107Z,0.70
2023-01-11T00:52:02.982Z,0.60
2023-01-11T00:53:03.897Z,0.60
2023-01-11T00:54:04.768Z,0.70
2023-01-11T00:55:05.696Z,0.60
2023-01-11T00:56:06.605Z,0.60
2023-01-11T00:57:07.559Z,0.50
2023-01-11T00:58:08.471Z,0.50
2023-01-11T00:59:09.417Z,0.70
2023-01-11T01:00:10.304Z,0.70
2023-01-11T01:01:11.271Z,1.10
2023-01-11T01:02:12.175Z,1.10
2023-01-11T01:03:13.032Z,1.10
2023-01-11T01:04:13.939Z,1.00
2023-01-11T01:05:14.839Z,1.20
2023-01-11T01:06:15.733Z,1.10
2023-01-11T01:07:16.613Z,1.10
2023-01-11T01:08:17.553Z,0.80
2023-01-11T01:09:18.430Z,0.80
2023-01-11T01:10:19.336Z,1.00
2023-01-11T01:11:20.239Z,1.00
2023-01-11T01:12:21.165Z,1.00
2023-01-11T01:13:22.120Z,1.10
2023-01-11T01:14:23.053Z,1.00
2023-01-11T01:15:23.957Z,0.90
2023-01-11T01:16:24.897Z,0.60
2023-01-11T01:17:25.785Z,0.70
2023-01-11T01:18:26.766Z,0.60
2023-01-11T01:19:27.663Z,0.60
2023-01-11T01:20:28.574Z,0.60
2023-01-11T01:21:29.460Z,0.60
2023-01-11T01:22:30.369Z,0.70
2023-01-11T01:23:31.287Z,0.60
2023-01-11T01:24:32.156Z,0.70
2023-01-11T01:25:33.055Z,0.60
2023-01-11T01:26:33.991Z,0.50
2023-01-11T01:27:34.865Z,0.60
2023-01-11T01:28:35.761Z,0.60
2023-01-11T01:29:36.698Z,0.70
2023-01-11T01:30:37.581Z,0.60
2023-01-11T01:31:38.496Z,0.80
2023-01-11T01:32:39.387Z,0.70
2023-01-11T01:33:40.302Z,0.80
2023-01-11T01:34:41.191Z,0.60
2023-01-11T01:35:42.099Z,0.70
2023-01-11T01:36:43.023Z,0.70
2023-01-11T01:37:43.942Z,0.70
2023-01-11T01:38:44.962Z,0.70
2023-01-11T01:39:45.321Z,0.60
2023-01-11T01:40:46.231Z,0.60
2023-01-11T01:41:47.143Z,0.60
2023-01-11T01:42:48.031Z,0.60
2023-01-11T01:43:48.977Z,0.40
2023-01-11T01:44:49.849Z,0.60
2023-01-11T01:45:50.756Z,0.50
2023-01-11T01:46:51.665Z,0.60
2023-01-11T01:47:52.604Z,0.60
2023-01-11T01:48:53.517Z,0.70
2023-01-11T01:49:54.411Z,0.60
2023-01-11T01:50:55.320Z,0.60
2023-01-11T01:51:56.247Z,0.50
2023-01-11T01:52:57.144Z,0.70
2023-01-11T01:53:58.047Z,0.60
2023-01-11T01:54:58.941Z,0.50
2023-01-11T01:55:59.849Z,0.50
2023-01-11T01:57:00.789Z,0.60
2023-01-11T01:58:01.759Z,0.70
2023-01-11T01:59:02.638Z,0.60
2023-01-11T02:00:03.570Z,0.60
2023-01-11T02:01:04.434Z,0.60
2023-01-11T02:02:05.393Z,0.80
2023-01-11T02:03:06.422Z,0.60
2023-01-11T02:04:06.864Z,0.70
2023-01-11T02:05:07.747Z,0.60
2023-01-11T02:06:08.640Z,0.70
2023-01-11T02:07:09.582Z,0.70
2023-01-11T02:08:10.479Z,0.70
2023-01-11T02:09:11.439Z,0.50
2023-01-11T02:10:12.307Z,0.90
2023-01-11T02:11:13.224Z,0.80
2023-01-11T02:12:14.105Z,0.70
2023-01-11T02:13:14.991Z,1.00
2023-01-11T02:14:15.887Z,0.60
2023-01-11T02:15:16.807Z,0.60
2023-01-11T02:16:17.775Z,0.70
2023-01-11T02:17:18.680Z,0.60
2023-01-11T02:18:19.563Z,0.70
2023-01-11T02:19:20.462Z,0.50
2023-01-11T02:20:21.371Z,0.50
2023-01-11T02:21:22.290Z,0.50
2023-01-11T02:22:23.219Z,0.50
2023-01-11T02:23:24.132Z,0.50
2023-01-11T02:24:25.041Z,0.50
2023-01-11T02:25:25.939Z,0.50
2023-01-11T02:26:26.860Z,0.40
2023-01-11T02:27:27.762Z,0.40
2023-01-11T02:28:28.679Z,0.40
2023-01-11T02:29:29.576Z,0.50
2023-01-11T02:30:30.454Z,0.70
2023-01-11T02:31:31.426Z,0.80
2023-01-11T02:32:32.319Z,0.80
2023-01-11T02:33:33.210Z,1.00
2023-01-11T02:34:34.104Z,0.70
2023-01-11T02:35:35.032Z,0.60
2023-01-11T02:36:35.962Z,0.50
2023-01-11T02:37:36.806Z,0.50
2023-01-11T02:38:37.714Z,0.60
2023-01-11T02:39:38.670Z,0.60
2023-01-11T02:40:39.569Z,0.70
2023-01-11T02:41:40.496Z,0.50
2023-01-11T02:42:41.413Z,0.60
2023-01-11T02:43:42.303Z,0.50
2023-01-11T02:44:43.211Z,0.50
2023-01-11T02:45:44.092Z,0.60
2023-01-11T02:46:45.108Z,0.50
2023-01-11T02:47:46.010Z,0.60
2023-01-11T02:48:46.931Z,0.60
2023-01-11T02:49:47.826Z,0.50
2023-01-11T02:50:48.724Z,0.50
2023-01-11T02:51:49.592Z,0.50
2023-01-11T02:52:50.521Z,0.50
2023-01-11T02:53:51.433Z,0.50
2023-01-11T02:54:52.337Z,0.60
2023-01-11T02:55:53.197Z,0.60
2023-01-11T02:56:54.093Z,0.50
2023-01-11T02:57:55.012Z,0.50
2023-01-11T02:58:55.907Z,0.50
2023-01-11T02:59:56.805Z,0.50
2023-01-11T03:00:57.709Z,0.50
2023-01-11T03:01:58.637Z,0.60
2023-01-11T03:02:59.549Z,0.60
2023-01-11T03:04:00.432Z,0.70
2023-01-11T03:05:01.317Z,0.50
2023-01-11T03:06:02.230Z,0.60
2023-01-11T03:07:03.141Z,0.50
2023-01-11T03:08:04.069Z,0.60
2023-01-11T03:09:04.943Z,0.50
2023-01-11T03:10:05.907Z,0.60
2023-01-11T03:11:06.762Z,0.50
2023-01-11T03:12:07.651Z,0.50
2023-01-11T03:13:08.570Z,0.50
2023-01-11T03:14:09.471Z,0.50
2023-01-11T03:15:10.360Z,0.50
2023-01-11T03:16:11.275Z,0.50
2023-01-11T03:17:12.121Z,0.50
2023-01-11T03:18:13.025Z,0.60
2023-01-11T03:19:13.911Z,0.50
2023-01-11T03:20:14.780Z,0.60
2023-01-11T03:21:15.664Z,0.60
2023-01-11T03:22:16.538Z,0.60
2023-01-11T03:23:17.430Z,0.60
2023-01-11T03:24:18.302Z,0.50
2023-01-11T03:25:19.237Z,0.70
2023-01-11T03:26:20.073Z,0.70
2023-01-11T03:27:20.977Z,0.70
2023-01-11T03:28:21.848Z,0.70
2023-01-11T03:29:22.739Z,0.80
2023-01-11T03:30:23.614Z,0.80
2023-01-11T03:31:24.561Z,0.60
2023-01-11T03:32:25.409Z,0.70
2023-01-11T03:33:29.101Z,0.60
2023-01-11T03:34:27.051Z,0.70
2023-01-11T03:35:27.932Z,0.60
2023-01-11T03:36:28.813Z,0.60
2023-01-11T03:37:29.695Z,0.60
2023-01-11T03:38:30.579Z,0.50
2023-01-11T03:39:31.454Z,0.60
2023-01-11T03:40:32.358Z,0.60
2023-01-11T03:41:33.216Z,0.60
2023-01-11T03:42:34.125Z,0.60
2023-01-11T03:43:34.996Z,0.60
2023-01-11T03:44:35.883Z,0.60
2023-01-11T03:45:36.743Z,0.50
2023-01-11T03:46:37.635Z,0.60
2023-01-11T03:47:38.517Z,0.60
2023-01-11T03:48:39.424Z,0.60
2023-01-11T03:49:40.310Z,0.60
2023-01-11T03:50:41.187Z,0.60
2023-01-11T03:51:42.077Z,0.60
2023-01-11T03:52:42.980Z,0.60
2023-01-11T03:53:43.913Z,0.50
2023-01-11T03:54:44.805Z,0.60
2023-01-11T03:55:45.717Z,0.60
2023-01-11T03:56:46.614Z,0.60
2023-01-11T03:57:47.490Z,0.70
2023-01-11T03:58:48.419Z,1.00
2023-01-11T03:59:49.296Z,1.00
2023-01-11T04:00:50.257Z,1.00
2023-01-11T04:01:51.102Z,1.00
2023-01-11T04:02:52.011Z,0.80
2023-01-11T04:03:52.984Z,0.80
2023-01-11T04:04:53.821Z,0.50
2023-01-11T04:05:54.710Z,0.50
2023-01-11T04:06:55.683Z,0.60
2023-01-11T04:07:56.527Z,0.60
2023-01-11T04:08:57.465Z,0.70
2023-01-11T04:09:58.344Z,0.80
2023-01-11T04:10:59.249Z,0.70
2023-01-11T04:12:00.115Z,0.80
2023-01-11T04:13:01.000Z,0.70
2023-01-11T04:14:01.930Z,0.70
2023-01-11T04:15:02.856Z,0.80
2023-01-11T04:16:03.800Z,0.90
2023-01-11T04:17:04.648Z,0.90
2023-01-11T04:18:05.540Z,1.00
2023-01-11T04:19:06.463Z,0.90
2023-01-11T04:20:07.351Z,0.70
2023-01-11T04:21:08.276Z,0.60
2023-01-11T04:22:09.158Z,0.50
2023-01-11T04:23:10.037Z,0.50
2023-01-11T04:24:10.941Z,0.60
2023-01-11T04:25:11.836Z,0.70
2023-01-11T04:26:12.792Z,0.60
2023-01-11T04:27:13.650Z,0.60
2023-01-11T04:28:14.536Z,0.70
2023-01-11T04:29:15.450Z,0.80
2023-01-11T04:30:16.338Z,0.70
2023-01-11T04:31:17.270Z,0.70
2023-01-11T04:32:18.110Z,0.50
2023-01-11T04:33:19.052Z,0.60
2023-01-11T04:34:19.911Z,0.60
2023-01-11T04:35:20.817Z,0.70
2023-01-11T04:36:21.711Z,0.70
2023-01-11T04:37:22.581Z,0.90
2023-01-11T04:38:23.465Z,0.60
2023-01-11T04:39:24.369Z,1.00
2023-01-11T04:40:25.238Z,1.00
2023-01-11T04:41:26.144Z,0.70
2023-01-11T04:42:27.025Z,0.60
2023-01-11T04:43:27.886Z,0.60
2023-01-11T04:44:28.790Z,0.50
2023-01-11T04:45:29.741Z,0.60
2023-01-11T04:46:30.583Z,0.50
2023-01-11T04:47:31.473Z,0.60
2023-01-11T04:48:32.352Z,0.70
2023-01-11T04:49:33.236Z,0.50
2023-01-11T04:50:34.220Z,0.50
2023-01-11T04:51:35.065Z,0.50
2023-01-11T04:52:35.934Z,0.50
2023-01-11T04:53:36.815Z,0.50
2023-01-11T04:54:37.708Z,0.50
2023-01-11T04:55:38.591Z,0.50
2023-01-11T04:56:39.496Z,0.50
2023-01-11T04:57:40.366Z,0.40
2023-01-11T04:58:41.242Z,0.60
2023-01-11T04:59:42.135Z,0.50
2023-01-11T05:00:43.056Z,0.50
2023-01-11T05:01:43.898Z,0.50
2023-01-11T05:02:44.779Z,0.50
2023-01-11T05:03:45.793Z,0.60
2023-01-11T05:04:46.189Z,0.60
2023-01-11T05:05:47.057Z,0.70
2023-01-11T05:06:48.021Z,0.70
2023-01-11T05:07:48.516Z,1.20
2023-01-11T05:08:49.394Z,1.00
2023-01-11T05:09:50.305Z,0.70
2023-01-11T05:10:51.177Z,0.80
2023-01-11T05:11:52.076Z,0.60
2023-01-11T05:12:52.942Z,1.00
2023-01-11T05:13:53.836Z,1.10
2023-01-11T05:14:54.721Z,1.20
2023-01-11T05:15:55.617Z,1.50
2023-01-11T05:16:56.498Z,1.20
2023-01-11T05:17:57.388Z,1.10
2023-01-11T05:18:58.263Z,1.40
2023-01-11T05:19:59.162Z,1.20
2023-01-11T05:21:00.049Z,1.40
2023-01-11T05:22:00.940Z,1.20
2023-01-11T05:23:01.832Z,1.10
2023-01-11T05:24:02.711Z,1.30
2023-01-11T05:25:03.613Z,1.10
2023-01-11T05:26:04.481Z,1.20
2023-01-11T05:27:05.387Z,1.10
2023-01-11T05:28:06.272Z,1.00
2023-01-11T05:29:07.142Z,1.10
2023-01-11T05:30:08.030Z,1.00
2023-01-11T05:31:08.915Z,1.10
2023-01-11T05:32:09.805Z,1.60
2023-01-11T05:33:10.678Z,2.20
2023-01-11T05:34:11.577Z,2.00
2023-01-11T05:35:12.461Z,2.30
2023-01-11T05:36:13.341Z,3.70
2023-01-11T05:37:14.223Z,3.30
2023-01-11T05:38:15.108Z,3.60
2023-01-11T05:39:15.984Z,3.30
2023-01-11T05:40:16.906Z,2.70
2023-01-11T05:41:17.761Z,2.60
2023-01-11T05:42:18.672Z,1.70
2023-01-11T05:43:19.532Z,2.00
2023-01-11T05:44:20.419Z,2.00
2023-01-11T05:45:21.319Z,2.10
2023-01-11T05:46:22.208Z,2.50
2023-01-11T05:47:23.104Z,7.60
2023-01-11T05:48:23.983Z,8.20
2023-01-11T05:49:24.866Z,4.60
2023-01-11T05:50:25.744Z,3.90
2023-01-11T05:51:26.626Z,2.70
2023-01-11T05:52:27.513Z,7.70
2023-01-11T05:53:28.416Z,4.60
2023-01-11T05:54:29.288Z,3.60
2023-01-11T05:55:30.174Z,4.40
2023-01-11T05:56:31.062Z,7.40
2023-01-11T05:57:31.970Z,6.10
2023-01-11T05:58:32.816Z,4.20
2023-01-11T05:59:33.721Z,3.10
2023-01-11T06:00:34.620Z,3.60
2023-01-11T06:01:35.511Z,1.80
2023-01-11T06:02:36.536Z,1.80
2023-01-11T06:03:36.914Z,13.30
2023-01-11T06:04:37.810Z,2.60
2023-01-11T06:05:38.743Z,7.00
2023-01-11T06:06:39.647Z,6.20
2023-01-11T06:07:40.494Z,2.60
2023-01-11T06:08:41.383Z,1.80
2023-01-11T06:09:42.263Z,1.60
2023-01-11T06:10:43.153Z,1.40
2023-01-11T06:11:44.036Z,3.10
2023-01-11T06:12:45.211Z,1.80
2023-01-11T06:13:45.575Z,1.70
2023-01-11T06:14:46.464Z,2.20
2023-01-11T06:15:47.367Z,2.60
2023-01-11T06:16:48.287Z,2.30
2023-01-11T06:17:49.122Z,3.50
2023-01-11T06:18:50.028Z,2.60
2023-01-11T06:19:50.891Z,3.00
2023-01-11T06:20:51.790Z,2.80
2023-01-11T06:21:52.667Z,2.30
2023-01-11T06:22:53.556Z,1.70
2023-01-11T06:23:54.443Z,2.00
2023-01-11T06:24:55.323Z,2.30
2023-01-11T06:25:56.259Z,2.20
2023-01-11T06:26:57.113Z,2.30
2023-01-11T06:27:58.009Z,2.00
2023-01-11T06:28:58.873Z,1.80
2023-01-11T06:29:59.754Z,1.80
2023-01-11T06:31:00.712Z,1.70
2023-01-11T06:32:01.562Z,2.00
2023-01-11T06:33:02.380Z,4.20
2023-01-11T06:34:03.214Z,2.20
2023-01-11T06:35:04.093Z,2.30
2023-01-11T06:36:04.989Z,1.90
2023-01-11T06:37:05.887Z,2.00
2023-01-11T06:38:06.781Z,2.10
2023-01-11T06:39:07.600Z,1.90
2023-01-11T06:40:08.478Z,2.40
2023-01-11T06:41:09.372Z,2.60
2023-01-11T06:42:10.153Z,2.70
2023-01-11T06:43:11.009Z,2.40
2023-01-11T06:44:11.823Z,2.80
2023-01-11T06:45:12.649Z,2.60
2023-01-11T06:46:13.555Z,2.80
2023-01-11T06:47:14.335Z,3.10
2023-01-11T06:48:15.162Z,3.60
2023-01-11T06:49:15.993Z,3.90
2023-01-11T06:50:16.835Z,3.10
2023-01-11T06:51:17.677Z,2.60
2023-01-11T06:52:18.494Z,2.80
2023-01-11T06:53:19.315Z,2.80
2023-01-11T06:54:20.143Z,3.00
2023-01-11T06:55:20.975Z,1.90
2023-01-11T06:56:21.819Z,2.30
2023-01-11T06:57:22.646Z,2.80
2023-01-11T06:58:23.503Z,2.10
2023-01-11T06:59:24.388Z,1.80
2023-01-11T07:00:25.206Z,1.90
2023-01-11T07:01:26.139Z,2.20
2023-01-11T07:02:26.646Z,2.20
2023-01-11T07:03:27.470Z,2.30
2023-01-11T07:04:28.297Z,3.30
2023-01-11T07:05:29.156Z,1.50
2023-01-11T07:06:29.963Z,1.50
2023-01-11T07:07:30.791Z,1.80
2023-01-11T07:08:31.628Z,1.30
2023-01-11T07:09:32.454Z,1.60
2023-01-11T07:10:33.287Z,1.50
2023-01-11T07:11:34.125Z,1.50
2023-01-11T07:12:34.952Z,2.30
2023-01-11T07:13:35.792Z,2.40
2023-01-11T07:14:36.605Z,2.30
2023-01-11T07:15:37.487Z,3.40
2023-01-11T07:16:38.271Z,2.40
2023-01-11T07:17:39.091Z,1.80
2023-01-11T07:18:39.923Z,2.00
2023-01-11T07:19:40.742Z,1.60
2023-01-11T07:20:41.572Z,1.60
2023-01-11T07:21:42.415Z,1.00
2023-01-11T07:22:43.252Z,0.70
2023-01-11T07:23:44.071Z,0.80
2023-01-11T07:24:47.042Z,0.60
2023-01-11T07:25:45.643Z,0.80
2023-01-11T07:26:46.487Z,0.70
2023-01-11T07:27:47.305Z,0.70
2023-01-11T07:28:48.162Z,0.70
2023-01-11T07:29:48.991Z,0.80
2023-01-11T07:30:58.214Z,0.70
2023-01-11T07:31:51.543Z,0.80
2023-01-11T07:32:51.373Z,1.00
2023-01-11T07:33:52.199Z,1.30
2023-01-11T07:34:53.033Z,1.40
2023-01-11T07:35:53.904Z,1.30
2023-01-11T07:36:54.693Z,1.30
2023-01-11T07:37:55.520Z,1.30
2023-01-11T07:38:56.342Z,1.20
2023-01-11T07:39:57.164Z,1.60
2023-01-11T07:40:57.997Z,1.20
2023-01-11T07:41:58.844Z,1.40
2023-01-11T07:42:59.664Z,1.40
2023-01-11T07:44:00.516Z,1.60
2023-01-11T07:45:01.345Z,1.60
2023-01-11T07:46:02.247Z,1.40
2023-01-11T07:47:03.114Z,1.20
2023-01-11T07:48:03.899Z,0.90
2023-01-11T07:49:04.717Z,0.90
2023-01-11T07:50:05.541Z,0.70
2023-01-11T07:51:06.363Z,0.70
2023-01-11T07:52:07.205Z,0.70
2023-01-11T07:53:08.035Z,0.70
2023-01-11T07:54:08.873Z,0.70
2023-01-11T07:55:09.690Z,0.80
2023-01-11T07:56:10.537Z,0.80
2023-01-11T07:57:11.355Z,0.80
2023-01-11T07:58:12.171Z,0.90
2023-01-11T07:59:13.028Z,1.00
2023-01-11T08:00:13.867Z,1.50
2023-01-11T08:01:14.676Z,1.70
2023-01-11T08:02:15.547Z,1.50
2023-01-11T08:03:16.511Z,1.40
2023-01-11T08:04:16.907Z,1.20
2023-01-11T08:05:17.720Z,1.60
2023-01-11T08:06:18.567Z,2.20
2023-01-11T08:07:19.436Z,1.90
2023-01-11T08:08:20.259Z,1.70
2023-01-11T08:09:21.088Z,1.50
2023-01-11T08:10:21.949Z,1.20
2023-01-11T08:11:22.875Z,1.30
2023-01-11T08:12:23.728Z,1.00
2023-01-11T08:13:24.560Z,0.70
2023-01-11T08:14:25.409Z,0.80
2023-01-11T08:15:26.214Z,1.20
2023-01-11T08:16:27.043Z,1.20
2023-01-11T08:17:27.947Z,1.00
2023-01-11T08:18:28.744Z,1.50
2023-01-11T08:19:29.577Z,1.40
2023-01-11T08:20:30.416Z,1.20
2023-01-11T08:21:31.241Z,0.90
2023-01-11T08:22:32.076Z,1.10
2023-01-11T08:23:32.903Z,1.10
2023-01-11T08:24:33.803Z,1.00
2023-01-11T08:25:34.578Z,1.10
2023-01-11T08:26:35.468Z,1.00
2023-01-11T08:27:36.269Z,0.90
2023-01-11T08:28:37.088Z,0.90
2023-01-11T08:29:37.965Z,1.10
2023-01-11T08:30:38.756Z,1.10
2023-01-11T08:31:39.599Z,1.00
2023-01-11T08:32:40.438Z,0.80
2023-01-11T08:33:41.269Z,0.90
2023-01-11T08:34:42.092Z,0.80
2023-01-11T08:35:42.933Z,0.80
2023-01-11T08:36:43.762Z,0.80
2023-01-11T08:37:44.599Z,0.90
2023-01-11T08:38:45.423Z,0.80
2023-01-11T08:39:46.254Z,1.00
2023-01-11T08:40:47.110Z,0.70
2023-01-11T08:41:47.933Z,0.80
2023-01-11T08:42:48.768Z,0.90
2023-01-11T08:43:49.596Z,0.90
2023-01-11T08:44:50.526Z,0.80
2023-01-11T08:45:51.302Z,1.00
2023-01-11T08:46:52.630Z,0.90
2023-01-11T08:47:52.925Z,1.10
2023-01-11T08:48:53.762Z,1.00
2023-01-11T08:49:54.589Z,1.00
2023-01-11T08:50:55.428Z,1.20
2023-01-11T08:51:56.265Z,1.50
2023-01-11T08:52:57.091Z,1.50
2023-01-11T08:53:58.079Z,1.40
2023-01-11T08:54:58.853Z,1.60
2023-01-11T08:55:59.684Z,1.60
2023-01-11T08:57:00.519Z,1.50
2023-01-11T08:58:01.343Z,1.60
2023-01-11T08:59:02.191Z,1.30
2023-01-11T09:00:03.029Z,1.10
2023-01-11T09:01:03.866Z,1.30
2023-01-11T09:02:04.676Z,1.00
2023-01-11T09:03:05.547Z,1.10
2023-01-11T09:04:19.235Z,1.10
2023-01-11T09:05:08.060Z,0.90
2023-01-11T09:06:07.871Z,0.90
2023-01-11T09:07:08.711Z,0.90
2023-01-11T09:08:09.523Z,0.90
2023-01-11T09:09:10.353Z,0.80
2023-01-11T09:10:11.211Z,0.90
2023-01-11T09:11:12.029Z,0.90
2023-01-11T09:12:12.897Z,1.00
2023-01-11T09:13:13.727Z,0.90
2023-01-11T09:14:14.558Z,1.00
2023-01-11T09:15:15.425Z,1.40
2023-01-11T09:16:16.260Z,1.00
2023-01-11T09:17:17.050Z,1.00
2023-01-11T09:18:17.883Z,1.00
2023-01-11T09:19:18.713Z,0.90
2023-01-11T09:20:19.582Z,1.00
2023-01-11T09:21:20.389Z,1.00
2023-01-11T09:22:21.241Z,0.90
2023-01-11T09:23:22.049Z,0.80
2023-01-11T09:24:22.885Z,0.70
2023-01-11T09:25:23.725Z,0.90
2023-01-11T09:26:24.542Z,0.70
2023-01-11T09:27:25.371Z,0.80
2023-01-11T09:28:26.209Z,1.10
2023-01-11T09:29:27.128Z,1.00
2023-01-11T09:30:27.964Z,1.00
2023-01-11T09:31:28.850Z,1.10
2023-01-11T09:32:29.656Z,1.00
2023-01-11T09:33:30.482Z,0.70
2023-01-11T09:34:31.415Z,0.70
2023-01-11T09:35:32.247Z,0.60
2023-01-11T09:36:33.116Z,0.70
2023-01-11T09:37:33.909Z,0.70
2023-01-11T09:38:34.726Z,0.70
2023-01-11T09:39:35.569Z,0.80
2023-01-11T09:40:36.406Z,0.90
2023-01-11T09:41:37.229Z,0.90
2023-01-11T09:42:38.049Z,1.10
2023-01-11T09:43:38.883Z,1.20
2023-01-11T09:44:39.712Z,1.00
2023-01-11T09:45:40.574Z,0.80
2023-01-11T09:46:41.394Z,0.90
2023-01-11T09:47:42.219Z,0.80
2023-01-11T09:48:43.072Z,1.00
2023-01-11T09:49:43.893Z,1.10
2023-01-11T09:50:44.724Z,1.40
2023-01-11T09:51:45.565Z,1.30
2023-01-11T09:52:46.384Z,1.00
2023-01-11T09:53:47.234Z,1.10
2023-01-11T09:54:48.074Z,1.10
2023-01-11T09:55:48.917Z,1.10
2023-01-11T09:56:49.737Z,0.90
2023-01-11T09:57:50.640Z,1.10
2023-01-11T09:58:51.441Z,1.10
2023-01-11T09:59:52.244Z,1.00
2023-01-11T10:00:53.212Z,1.00
2023-01-11T10:01:54.002Z,0.80
2023-01-11T10:02:54.826Z,0.80
2023-01-11T10:03:55.653Z,0.70
2023-01-11T10:04:56.502Z,0.70
2023-01-11T10:05:57.334Z,0.80
2023-01-11T10:06:58.167Z,0.80
2023-01-11T10:18:22.582Z,0.60
2023-01-11T10:18:29.449Z,0.80
2023-01-11T10:18:31.451Z,0.70
2023-01-11T10:18:37.594Z,0.80
2023-01-11T10:18:40.445Z,0.70
2023-01-11T10:20:08.652Z,0.80
2023-01-11T10:21:08.479Z,0.80
2023-01-11T10:22:09.308Z,0.70
2023-01-11T10:23:10.141Z,0.60
2023-01-11T10:24:10.964Z,0.80
2023-01-11T10:25:12.036Z,0.60
2023-01-11T10:26:12.340Z,0.90
2023-01-11T10:27:13.234Z,0.80
2023-01-11T10:28:14.101Z,0.80
2023-01-11T10:29:14.938Z,0.80
2023-01-11T10:30:15.760Z,0.90
2023-01-11T10:31:16.674Z,0.90
2023-01-11T10:32:17.458Z,1.10
2023-01-11T10:33:18.290Z,1.10
2023-01-11T10:34:19.106Z,1.00
2023-01-11T10:35:19.934Z,0.90
2023-01-11T10:36:20.775Z,1.00
2023-01-11T10:37:21.605Z,0.80
2023-01-11T10:38:22.449Z,1.00
2023-01-11T10:39:23.277Z,0.90
2023-01-11T10:40:24.095Z,1.00
2023-01-11T10:41:24.940Z,0.90
2023-01-11T10:42:25.758Z,1.20
2023-01-11T10:43:26.598Z,1.50
2023-01-11T10:44:27.510Z,1.70
2023-01-11T10:45:28.311Z,1.70
2023-01-11T10:46:29.213Z,1.70
2023-01-11T10:47:29.970Z,1.70
2023-01-11T10:48:30.798Z,1.60
2023-01-11T10:49:33.720Z,1.50
2023-01-11T10:50:32.382Z,1.10
2023-01-11T10:51:33.201Z,1.10
2023-01-11T10:52:34.028Z,0.80
2023-01-11T10:53:34.879Z,0.90
2023-01-11T10:54:35.695Z,1.00
2023-01-11T10:55:36.518Z,0.90
2023-01-11T10:56:37.386Z,1.00
2023-01-11T10:57:39.071Z,1.00
2023-01-11T10:58:39.784Z,0.90
2023-01-11T10:59:39.616Z,0.80
2023-01-11T11:00:40.535Z,0.90
2023-01-11T11:01:41.436Z,0.80
2023-01-11T11:02:42.238Z,0.90
2023-01-11T11:03:43.060Z,0.80
2023-01-11T11:04:43.897Z,0.70
2023-01-11T11:05:44.734Z,0.80
2023-01-11T11:06:45.579Z,0.70
2023-01-11T11:07:46.395Z,0.80
2023-01-11T11:08:47.243Z,0.70
2023-01-11T11:09:48.061Z,0.80
2023-01-11T11:10:48.892Z,0.70
2023-01-11T11:11:49.746Z,0.60
2023-01-11T11:12:50.573Z,0.60
2023-01-11T11:13:51.415Z,0.60
2023-01-11T11:14:52.246Z,0.70
2023-01-11T11:15:53.127Z,0.80
2023-01-11T11:16:53.943Z,0.80
2023-01-11T11:17:54.746Z,0.70
2023-01-11T11:18:55.608Z,0.80
2023-01-11T11:19:56.394Z,0.90
2023-01-11T11:20:57.263Z,2.90
2023-01-11T11:21:58.118Z,3.20
2023-01-11T11:22:58.943Z,4.60
2023-01-11T11:23:59.763Z,4.10
2023-01-11T11:25:00.594Z,2.80
2023-01-11T11:26:01.427Z,1.80
2023-01-11T11:27:02.306Z,1.50
2023-01-11T11:28:03.136Z,1.00
2023-01-11T11:29:03.967Z,1.10
2023-01-11T11:30:04.780Z,0.80
2023-01-11T11:31:05.631Z,0.80
2023-01-11T11:32:06.462Z,0.90
2023-01-11T11:33:07.311Z,0.80
2023-01-11T11:34:08.108Z,0.70
2023-01-11T11:35:08.940Z,0.90
2023-01-11T11:36:09.758Z,0.80
2023-01-11T11:37:10.598Z,0.90
2023-01-11T11:38:11.423Z,0.90
2023-01-11T11:39:12.250Z,1.00
2023-01-11T11:40:13.100Z,0.80
2023-01-11T11:41:13.921Z,0.80
2023-01-11T11:42:14.753Z,1.10
2023-01-11T11:43:15.589Z,1.00
2023-01-11T11:44:16.526Z,1.10
2023-01-11T11:45:17.357Z,1.10
2023-01-11T11:46:19.884Z,1.10
2023-01-11T11:47:19.017Z,1.00
2023-01-11T11:48:19.830Z,1.10
2023-01-11T11:49:20.654Z,1.80
2023-01-11T11:50:42.360Z,3.20
2023-01-11T11:51:23.191Z,4.60
2023-01-11T11:52:23.024Z,4.30
2023-01-11T11:53:23.869Z,3.50
2023-01-11T11:54:24.735Z,1.80
2023-01-11T11:55:25.533Z,1.80
2023-01-11T11:56:26.366Z,3.60
2023-01-11T11:57:28.447Z,8.90
2023-01-11T11:58:27.874Z,18.50
2023-01-11T11:59:28.715Z,23.90
2023-01-11T12:00:29.539Z,3.80
2023-01-11T12:01:30.381Z,2.10
2023-01-11T12:02:31.351Z,1.30
2023-01-11T12:03:32.168Z,1.00
2023-01-11T12:04:33.618Z,1.10
2023-01-11T12:05:33.959Z,1.40
2023-01-11T12:06:34.800Z,1.20
2023-01-11T12:07:40.430Z,1.10
2023-01-11T12:08:37.339Z,1.50
2023-01-11T12:09:37.188Z,1.60
2023-01-11T12:10:37.988Z,1.80
2023-01-11T12:11:38.827Z,4.70
2023-01-11T12:12:39.700Z,3.50
2023-01-11T12:13:40.501Z,2.40
2023-01-11T12:14:41.323Z,1.50
2023-01-11T12:15:42.152Z,1.80
2023-01-11T12:16:43.020Z,1.50
2023-01-11T12:17:43.833Z,1.60
2023-01-11T12:18:44.660Z,1.10
2023-01-11T12:19:45.468Z,0.80
2023-01-11T12:20:46.302Z,0.80
2023-01-11T12:21:47.138Z,1.10
2023-01-11T12:22:47.968Z,1.00
2023-01-11T12:23:48.800Z,1.10
2023-01-11T12:24:49.634Z,1.00
2023-01-11T12:25:50.455Z,1.00
2023-01-11T12:26:51.422Z,1.00
2023-01-11T12:27:52.254Z,1.40
2023-01-11T12:28:53.086Z,1.30
2023-01-11T12:29:53.914Z,1.30
2023-01-11T12:30:54.761Z,1.30
2023-01-11T12:31:55.571Z,1.40
2023-01-11T12:32:56.487Z,1.30
2023-01-11T12:33:57.258Z,1.20
2023-01-11T12:34:58.088Z,1.10
2023-01-11T12:35:58.928Z,1.70
2023-01-11T12:36:59.773Z,2.40
2023-01-11T12:38:00.603Z,2.70
2023-01-11T12:39:01.431Z,3.40
2023-01-11T12:40:02.252Z,2.70
2023-01-11T12:41:03.080Z,2.30
2023-01-11T12:42:03.925Z,2.60
2023-01-11T12:43:04.756Z,2.10
2023-01-11T12:44:05.606Z,2.20
2023-01-11T12:45:06.417Z,1.90
2023-01-11T12:46:07.309Z,2.30
2023-01-11T12:47:08.090Z,2.60
2023-01-11T12:48:08.956Z,3.20
2023-01-11T12:49:09.757Z,2.80
2023-01-11T12:50:10.585Z,3.30
2023-01-11T12:51:11.406Z,4.20
2023-01-11T12:52:12.242Z,5.20
2023-01-11T12:53:13.145Z,3.90
2023-01-11T12:54:13.967Z,3.50
2023-01-11T12:55:14.815Z,2.30
2023-01-11T12:56:15.640Z,3.20
2023-01-11T12:57:16.487Z,1.30
2023-01-11T12:58:17.316Z,1.70
2023-01-11T12:59:18.142Z,1.80
2023-01-11T13:00:18.967Z,2.50
2023-01-11T13:01:19.914Z,1.80
2023-01-11T13:02:20.746Z,3.70
2023-01-11T13:03:21.607Z,4.80
2023-01-11T13:04:22.421Z,4.00
2023-01-11T13:05:23.226Z,3.70
2023-01-11T13:06:24.055Z,2.80
2023-01-11T13:07:24.882Z,9.60
2023-01-11T13:08:25.778Z,7.10
2023-01-11T13:09:26.559Z,3.40
2023-01-11T13:10:27.404Z,26.70
2023-01-11T13:11:28.208Z,10.80
2023-01-11T13:12:29.040Z,13.30
2023-01-11T13:13:29.877Z,15.20
2023-01-11T13:14:30.709Z,11.70
2023-01-11T13:15:34.270Z,10.90
2023-01-11T13:16:32.270Z,4.00
2023-01-11T13:17:33.078Z,3.60
2023-01-11T13:18:33.924Z,2.20
2023-01-11T13:19:34.731Z,1.60
2023-01-11T13:20:48.778Z,1.40
2023-01-11T13:21:37.275Z,2.50
2023-01-11T13:22:37.107Z,3.70
2023-01-11T13:23:37.972Z,5.70
2023-01-11T13:24:38.793Z,2.80
2023-01-11T13:25:39.623Z,2.30
2023-01-11T13:26:40.552Z,2.30
2023-01-11T13:27:41.363Z,2.40
2023-01-11T13:28:42.211Z,2.30
2023-01-11T13:29:43.067Z,2.60
2023-01-11T13:30:43.911Z,2.00
2023-01-11T13:31:44.706Z,2.00
2023-01-11T13:32:45.539Z,2.30
2023-01-11T13:33:46.448Z,2.10
2023-01-11T13:34:47.540Z,1.70
2023-01-11T13:35:48.014Z,1.60
2023-01-11T13:36:48.843Z,1.60